Time;durP1;ratioP1;P1;durP2;ratioP2;P2;SDS_P1;SDS_P2;PMS_P1;PMS_P2;Temp;Humidity;BMP_temperature;BMP_pressure;BME280_temperature;BME280_humidity;BME280_pressure;Samples;Min_cycle;Max_cycle;Signal;HPM_P1;HPM_P2
2023/03/07 07:52:53;;;;;;;0.50;0.50;;;2.70;99.90;;;;;;6238832;22;1297544;-78
2023/03/07 07:55:19;;;;;;;0.50;0.50;;;2.80;99.90;;;;;;6217334;23;20020;-77
2023/03/07 07:57:44;;;;;;;0.50;0.50;;;2.70;99.90;;;;;;6217804;23;20013;-75
2023/03/07 08:00:12;;;;;;;0.43;0.43;;;2.70;99.90;;;;;;6216624;23;20408;-74
2023/03/07 08:02:38;;;;;;;0.50;0.50;;;2.80;99.90;;;;;;6190127;23;20016;-75
2023/03/07 08:05:08;;;;;;;0.60;0.60;;;2.80;99.90;;;;;;6215138;23;20013;-74
2023/03/07 08:07:34;;;;;;;0.50;0.50;;;3.00;99.90;;;;;;6190128;23;20047;-74
2023/03/07 08:10:00;;;;;;;0.40;0.40;;;3.00;99.90;;;;;;6215422;23;20021;-74
2023/03/07 08:12:26;;;;;;;0.40;0.40;;;2.90;99.90;;;;;;6215267;23;20019;-75
2023/03/07 08:14:51;;;;;;;0.50;0.50;;;2.90;99.90;;;;;;6215034;23;20108;-74
2023/03/07 08:17:17;;;;;;;0.50;0.50;;;2.90;99.90;;;;;;6190045;23;20013;-74
2023/03/07 08:19:42;;;;;;;0.50;0.50;;;3.10;99.90;;;;;;6215475;23;20040;-75
2023/03/07 08:22:08;;;;;;;0.57;0.57;;;3.20;99.90;;;;;;6190048;23;20092;-74
2023/03/07 08:24:34;;;;;;;0.77;0.77;;;3.00;99.90;;;;;;6216898;23;20048;-74
2023/03/07 08:27:00;;;;;;;0.40;0.40;;;3.10;99.90;;;;;;6215094;23;20051;-74
2023/03/07 08:29:26;;;;;;;0.50;0.50;;;3.20;99.90;;;;;;6240260;23;20208;-74
2023/03/07 08:31:53;;;;;;;0.50;0.50;;;3.00;99.90;;;;;;6216689;23;20012;-74
2023/03/07 08:34:19;;;;;;;0.50;0.50;;;3.00;99.90;;;;;;6216751;23;20016;-74
2023/03/07 08:36:45;;;;;;;0.50;0.50;;;2.90;99.90;;;;;;6214764;23;20021;-75
2023/03/07 08:39:11;;;;;;;0.60;0.60;;;2.80;99.90;;;;;;6240135;23;20190;-74
2023/03/07 08:41:37;;;;;;;0.60;0.60;;;2.80;99.90;;;;;;6216865;23;20015;-75
2023/03/07 08:44:03;;;;;;;0.50;0.50;;;2.80;99.90;;;;;;6216669;23;20020;-75
2023/03/07 08:46:29;;;;;;;0.40;0.40;;;2.90;99.90;;;;;;6216602;23;20084;-75
2023/03/07 08:48:54;;;;;;;0.40;0.40;;;2.90;99.90;;;;;;6214661;23;20020;-75
2023/03/07 08:51:20;;;;;;;0.55;0.55;;;3.10;99.90;;;;;;6216615;23;20019;-74
2023/03/07 08:53:46;;;;;;;0.40;0.40;;;3.00;99.90;;;;;;6240054;23;20381;-75
2023/03/07 08:56:14;;;;;;;0.50;0.50;;;3.10;99.90;;;;;;6215271;23;20027;-75
2023/03/07 08:58:40;;;;;;;0.50;0.50;;;3.20;99.90;;;;;;6214835;23;20016;-75
2023/03/07 09:01:07;;;;;;;0.50;0.50;;;3.30;99.90;;;;;;6214745;23;20135;-74
2023/03/07 09:03:33;;;;;;;0.52;0.52;;;3.50;99.90;;;;;;6189735;23;20086;-75
2023/03/07 09:05:59;;;;;;;0.60;0.60;;;3.50;99.90;;;;;;6189466;23;20122;-75
2023/03/07 09:08:25;;;;;;;0.40;0.40;;;3.50;99.90;;;;;;6214728;23;20015;-74
2023/03/07 09:10:51;;;;;;;0.50;0.50;;;3.70;99.90;;;;;;6214725;23;20048;-75
2023/03/07 09:13:17;;;;;;;0.50;0.50;;;3.60;99.90;;;;;;6214648;23;20044;-74
2023/03/07 09:15:43;;;;;;;0.50;0.50;;;3.70;99.90;;;;;;6214520;23;20016;-74
2023/03/07 09:18:09;;;;;;;0.50;0.50;;;3.70;99.90;;;;;;6189358;23;20020;-74
2023/03/07 09:20:37;;;;;;;0.50;0.50;;;3.70;99.90;;;;;;6189586;23;20507;-74
2023/03/07 09:23:04;;;;;;;0.50;0.50;;;3.80;99.90;;;;;;6214626;23;20063;-74
2023/03/07 09:25:29;;;;;;;0.40;0.40;;;3.70;99.90;;;;;;6189617;23;20012;-74
2023/03/07 09:27:55;;;;;;;0.60;0.60;;;3.90;99.90;;;;;;6214594;23;20436;-74
2023/03/07 09:30:25;;;;;;;0.40;0.40;;;4.00;99.90;;;;;;6216256;23;20341;-75
2023/03/07 09:32:51;;;;;;;0.60;0.60;;;3.90;99.90;;;;;;6214701;23;20091;-75
2023/03/07 09:35:17;;;;;;;0.40;0.40;;;3.90;99.90;;;;;;6239325;23;20024;-74
2023/03/07 09:37:43;;;;;;;0.50;0.50;;;4.00;99.90;;;;;;6189495;23;20096;-75
2023/03/07 09:40:24;;;;;;;0.50;0.50;;;3.80;99.90;;;;;;6216149;23;20048;-75
2023/03/07 09:43:04;;;;;;;0.40;0.40;;;3.70;99.90;;;;;;6214639;23;20052;-74
2023/03/07 09:45:48;;;;;;;0.50;0.50;;;3.70;99.90;;;;;;6214357;23;20009;-74
2023/03/07 09:48:35;;;;;;;0.40;0.40;;;3.70;99.90;;;;;;6214392;23;20016;-74
2023/03/07 09:51:15;;;;;;;0.50;0.50;;;3.60;99.90;;;;;;6214347;23;20013;-74
2023/03/07 09:54:05;;;;;;;0.50;0.50;;;3.50;99.90;;;;;;6214121;23;20043;-74
2023/03/07 09:56:53;;;;;;;0.40;0.40;;;3.30;99.90;;;;;;6214408;23;20025;-74
2023/03/07 09:59:42;;;;;;;0.50;0.50;;;2.90;99.90;;;;;;6189322;23;20386;-74
2023/03/07 10:02:35;;;;;;;0.50;0.50;;;2.60;99.90;;;;;;6214831;23;20008;-74
2023/03/07 10:05:10;;;;;;;0.57;0.57;;;2.30;99.90;;;;;;6214653;23;20052;-74
2023/03/07 10:07:36;;;;;;;0.50;0.50;;;1.90;99.90;;;;;;6214362;23;20100;-74
2023/03/07 10:10:13;;;;;;;0.52;0.52;;;1.90;99.90;;;;;;6214192;23;20088;-74
2023/03/07 10:12:57;;;;;;;0.50;0.50;;;1.60;99.90;;;;;;6189274;23;20044;-73
2023/03/07 10:15:41;;;;;;;0.50;0.50;;;1.60;99.90;;;;;;6214296;23;20017;-74
2023/03/07 10:18:18;;;;;;;0.50;0.50;;;1.80;99.90;;;;;;6216240;23;20017;-74
2023/03/07 10:20:55;;;;;;;0.60;0.60;;;1.80;99.90;;;;;;6239967;23;20051;-73
2023/03/07 10:23:53;;;;;;;0.60;0.60;;;1.90;99.90;;;;;;6189199;23;20013;-74
2023/03/07 10:26:21;;;;;;;0.43;0.43;;;1.70;99.90;;;;;;6216178;23;20067;-74
2023/03/07 10:28:48;;;;;;;0.50;0.50;;;1.80;99.90;;;;;;6214157;23;20091;-74
2023/03/07 10:31:35;;;;;;;0.50;0.50;;;1.90;99.90;;;;;;6214107;23;20013;-74
2023/03/07 10:34:11;;;;;;;0.50;0.50;;;1.80;99.90;;;;;;6216051;23;20009;-75
2023/03/07 10:36:43;;;;;;;0.60;0.60;;;2.10;99.90;;;;;;6214688;23;20433;-74
2023/03/07 10:39:43;;;;;;;0.50;0.50;;;2.00;99.90;;;;;;6214078;23;20460;-74
2023/03/07 10:42:12;;;;;;;0.50;0.50;;;2.20;99.90;;;;;;6214652;23;20067;-74
2023/03/07 10:44:38;;;;;;;0.40;0.40;;;2.40;99.90;;;;;;6189110;23;20016;-75
2023/03/07 10:47:04;;;;;;;0.50;0.50;;;2.50;99.90;;;;;;6213956;23;20019;-75
2023/03/07 10:49:43;;;;;;;0.50;0.50;;;2.60;99.90;;;;;;6189046;23;20096;-74
2023/03/07 10:52:26;;;;;;;0.57;0.57;;;2.90;99.90;;;;;;6215605;23;20087;-75
2023/03/07 10:54:53;;;;;;;0.40;0.40;;;2.80;99.90;;;;;;6190777;23;20066;-75
2023/03/07 10:57:26;;;;;;;0.50;0.50;;;3.00;99.90;;;;;;6215960;23;20020;-75
2023/03/07 10:59:52;;;;;;;0.50;0.50;;;3.20;99.90;;;;;;6217847;23;20017;-74
2023/03/07 11:02:35;;;;;;;0.50;0.50;;;3.40;99.90;;;;;;6215924;23;20011;-74
2023/03/07 11:05:02;;;;;;;0.60;0.60;;;3.40;99.90;;;;;;6217820;23;20019;-74
2023/03/07 11:07:31;;;;;;;0.47;0.47;;;3.60;99.90;;;;;;6190701;23;20016;-74
2023/03/07 11:09:59;;;;;;;0.50;0.50;;;3.80;99.90;;;;;;6215839;23;20013;-74
2023/03/07 11:12:27;;;;;;;0.50;0.50;;;4.00;99.90;;;;;;6217749;23;20013;-74
2023/03/07 11:15:09;;;;;;;0.40;0.40;;;4.00;99.90;;;;;;6215742;23;20058;-74
2023/03/07 11:17:40;;;;;;;0.47;0.47;;;4.10;99.90;;;;;;6217372;23;20062;-74
2023/03/07 11:20:27;;;;;;;0.60;0.60;;;4.20;99.90;;;;;;6217621;23;20009;-74
2023/03/07 11:23:17;;;;;;;0.50;0.50;;;4.30;99.90;;;;;;6215832;23;20015;-73
2023/03/07 11:25:43;;;;;;;0.40;0.40;;;4.40;99.90;;;;;;6215717;23;20446;-74
2023/03/07 11:28:28;;;;;;;0.43;0.43;;;4.60;99.90;;;;;;6215679;23;20013;-74
2023/03/07 11:31:06;;;;;;;0.40;0.40;;;4.60;99.90;;;;;;6217525;23;20009;-74
2023/03/07 11:33:54;;;;;;;0.50;0.50;;;4.70;99.90;;;;;;6217456;23;20084;-74
2023/03/07 11:36:31;;;;;;;0.50;0.50;;;4.70;99.90;;;;;;6215634;23;20020;-74
2023/03/07 11:39:00;;;;;;;0.40;0.40;;;4.80;99.90;;;;;;6190440;23;20017;-75
2023/03/07 11:41:31;;;;;;;0.40;0.40;;;5.00;99.90;;;;;;6190591;23;20013;-75
2023/03/07 11:44:21;;;;;;;0.50;0.50;;;5.20;99.90;;;;;;6217215;23;20008;-75
2023/03/07 11:47:10;;;;;;;0.40;0.40;;;5.20;99.90;;;;;;6216490;23;20016;-74
2023/03/07 11:50:05;;;;;;;0.40;0.40;;;5.20;99.90;;;;;;6215574;23;20013;-74
2023/03/07 11:53:08;;;;;;;0.60;0.60;;;5.20;99.90;;;;;;6215483;23;20100;-73
2023/03/07 11:56:03;;;;;;;0.50;0.50;;;5.00;99.90;;;;;;6215534;23;20341;-74
2023/03/07 11:59:04;;;;;;;0.60;0.60;;;5.00;99.90;;;;;;6215856;23;20087;-74
2023/03/07 12:01:36;;;;;;;;;;;5.00;99.90;;;;;;6190841;23;20096;-74
2023/03/07 12:04:14;;;;;;;0.57;0.57;;;5.10;99.90;;;;;;6215191;23;19916;-73
2023/03/07 12:07:05;;;;;;;0.52;0.52;;;5.20;99.90;;;;;;6215345;23;20035;-74
2023/03/07 12:10:03;;;;;;;0.40;0.40;;;5.10;99.90;;;;;;6215249;23;20028;-74
2023/03/07 12:12:34;;;;;;;0.60;0.60;;;5.10;99.90;;;;;;6216150;23;20044;-74
2023/03/07 12:15:05;;;;;;;0.47;0.47;;;5.00;99.90;;;;;;6216797;23;20013;-73
2023/03/07 12:17:39;;;;;;;0.50;0.50;;;4.80;99.90;;;;;;6217226;23;20020;-75
2023/03/07 12:20:23;;;;;;;0.60;0.60;;;4.80;99.90;;;;;;6215286;23;20013;-74
2023/03/07 12:23:06;;;;;;;0.40;0.40;;;4.70;99.90;;;;;;6190263;23;20009;-74
2023/03/07 12:25:52;;;;;;;0.40;0.40;;;4.80;99.90;;;;;;6215190;23;20005;-74
2023/03/07 12:28:42;;;;;;;0.50;0.50;;;4.80;99.90;;;;;;6215094;23;20017;-74
2023/03/07 12:31:28;;;;;;;0.43;0.43;;;4.90;99.90;;;;;;6217061;23;20119;-74
2023/03/07 12:34:14;;;;;;;0.50;0.50;;;5.00;99.90;;;;;;6216847;23;20013;-73
2023/03/07 12:36:49;;;;;;;0.57;0.57;;;4.90;99.90;;;;;;6215055;23;20075;-74
2023/03/07 12:39:22;;;;;;;0.40;0.40;;;4.90;99.90;;;;;;6216433;23;20019;-74
2023/03/07 12:42:15;;;;;;;0.43;0.43;;;4.90;99.90;;;;;;6216879;23;20082;-74
2023/03/07 12:44:50;;;;;;;0.43;0.43;;;4.80;99.90;;;;;;6214881;23;20107;-74
2023/03/07 12:47:37;;;;;;;0.40;0.40;;;4.90;99.90;;;;;;6215454;23;20016;-73
2023/03/07 12:50:22;;;;;;;0.60;0.60;;;4.70;99.90;;;;;;6214806;23;20067;-74
2023/03/07 12:53:04;;;;;;;0.40;0.40;;;4.80;99.90;;;;;;6216344;23;20255;-75
2023/03/07 12:55:43;;;;;;;0.57;0.57;;;4.80;99.90;;;;;;6214930;23;20021;-74
2023/03/07 12:58:21;;;;;;;0.40;0.40;;;4.80;99.90;;;;;;6214787;23;20013;-74
2023/03/07 13:00:56;;;;;;;0.40;0.40;;;4.80;99.90;;;;;;6216612;23;20429;-74
2023/03/07 13:03:56;;;;;;;0.40;0.40;;;4.80;99.90;;;;;;6240110;23;20040;-74
2023/03/07 13:06:24;;;;;;;0.50;0.50;;;4.80;99.90;;;;;;6214696;23;20044;-74
2023/03/07 13:08:56;;;;;;;0.60;0.60;;;4.90;99.90;;;;;;6216597;23;20051;-74
2023/03/07 13:11:25;;;;;;;0.40;0.40;;;4.80;99.90;;;;;;6189918;23;20444;-74
2023/03/07 13:13:57;;;;;;;0.50;0.50;;;4.80;99.90;;;;;;6216604;23;20013;-74
2023/03/07 13:16:44;;;;;;;0.50;0.50;;;4.90;99.90;;;;;;6214539;23;20017;-74
2023/03/07 13:19:34;;;;;;;0.50;0.50;;;4.80;99.90;;;;;;6189662;23;20012;-74
2023/03/07 13:22:20;;;;;;;0.50;0.50;;;4.90;99.90;;;;;;6216631;23;20023;-74
2023/03/07 13:24:47;;;;;;;0.50;0.50;;;5.00;99.90;;;;;;6216057;23;20013;-75
2023/03/07 13:27:35;;;;;;;0.50;0.50;;;4.90;99.90;;;;;;6214817;23;20091;-74
2023/03/07 13:30:07;;;;;;;0.50;0.50;;;4.90;99.90;;;;;;6154752;23;20023;-74
2023/03/07 13:32:48;;;;;;;0.40;0.40;;;5.00;99.90;;;;;;6216046;23;20464;-74
2023/03/07 13:35:37;;;;;;;0.50;0.50;;;5.00;99.90;;;;;;6214610;23;20044;-73
2023/03/07 13:38:37;;;;;;;0.60;0.60;;;4.90;99.90;;;;;;6196364;23;20111;-74
2023/03/07 13:41:09;;;;;;;0.50;0.50;;;5.00;99.90;;;;;;6214622;23;20091;-74
2023/03/07 13:43:44;;;;;;;0.40;0.40;;;5.10;99.90;;;;;;6214594;23;20013;-74
2023/03/07 13:46:42;;;;;;;0.45;0.45;;;5.20;99.90;;;;;;6214773;23;20067;-75
2023/03/07 13:49:08;;;;;;;0.60;0.60;;;5.20;99.90;;;;;;6216016;23;20119;-74
2023/03/07 13:51:33;;;;;;;0.60;0.60;;;5.30;99.90;;;;;;6214393;23;20012;-74
2023/03/07 13:54:02;;;;;;;0.50;0.50;;;5.30;99.90;;;;;;6214071;23;20017;-74
2023/03/07 13:56:33;;;;;;;0.50;0.50;;;5.30;99.90;;;;;;6216286;23;20040;-74
2023/03/07 13:59:20;;;;;;;0.60;0.60;;;5.20;99.90;;;;;;6189312;23;20020;-74
2023/03/07 14:01:50;;;;;;;0.40;0.40;;;5.20;99.90;;;;;;6214327;23;20143;-73
2023/03/07 14:04:21;;;;;;;0.60;0.60;;;5.10;99.90;;;;;;6214337;23;20019;-74
2023/03/07 14:06:53;;;;;;;0.50;0.50;;;5.00;99.90;;;;;;6216092;23;20078;-74
2023/03/07 14:09:25;;;;;;;0.60;0.60;;;5.00;99.90;;;;;;6216145;23;20005;-74
2023/03/07 14:12:13;;;;;;;0.50;0.50;;;5.00;99.90;;;;;;6216428;23;20021;-74
2023/03/07 14:15:05;;;;;;;0.38;0.38;;;5.10;99.90;;;;;;6216164;23;20004;-74
2023/03/07 14:17:52;;;;;;;0.50;0.50;;;5.20;99.90;;;;;;6214230;23;20059;-74
2023/03/07 14:20:52;;;;;;;0.50;0.50;;;5.20;99.90;;;;;;6216213;23;20055;-73
2023/03/07 14:23:38;;;;;;;0.50;0.50;;;5.20;99.90;;;;;;6214176;23;20338;-74
2023/03/07 14:26:10;;;;;;;0.40;0.40;;;5.20;99.90;;;;;;6214296;23;20012;-74
2023/03/07 14:28:45;;;;;;;0.50;0.50;;;5.10;99.90;;;;;;6215354;23;20385;-74
2023/03/07 14:31:24;;;;;;;0.40;0.40;;;4.90;99.90;;;;;;6216580;23;20012;-74
2023/03/07 14:33:49;;;;;;;0.50;0.50;;;4.80;99.90;;;;;;6191040;23;20017;-74
2023/03/07 14:36:33;;;;;;;0.50;0.50;;;4.60;99.90;;;;;;6217517;23;20082;-74
2023/03/07 14:39:03;;;;;;;0.40;0.40;;;4.50;99.90;;;;;;6217938;23;20023;-74
2023/03/07 14:41:34;;;;;;;;;;;4.60;99.90;;;;;;6216589;23;20476;-74
2023/03/07 14:44:31;;;;;;;0.40;0.40;;;4.50;99.90;;;;;;6216523;23;20059;-74
2023/03/07 14:46:57;;;;;;;0.30;0.30;;;4.40;99.90;;;;;;6217703;23;20012;-78
2023/03/07 14:49:47;;;;;;;0.40;0.40;;;4.30;99.90;;;;;;6215850;23;20100;-74
2023/03/07 14:52:15;;;;;;;0.43;0.43;;;4.20;99.90;;;;;;6217754;23;20020;-74
2023/03/07 14:54:45;;;;;;;0.52;0.52;;;4.20;99.90;;;;;;6215892;23;20013;-74
2023/03/07 14:57:28;;;;;;;0.40;0.40;;;4.10;99.90;;;;;;6217963;23;20379;-74
2023/03/07 15:00:12;;;;;;;0.50;0.50;;;4.10;99.90;;;;;;6218347;23;20017;-74
2023/03/07 15:02:48;;;;;;;0.50;0.50;;;4.10;99.90;;;;;;6217716;23;20013;-74
2023/03/07 15:05:16;;;;;;;0.50;0.50;;;4.10;99.90;;;;;;6217378;23;20035;-74
2023/03/07 15:07:42;;;;;;;0.50;0.50;;;4.30;99.90;;;;;;6217585;23;20015;-74
2023/03/07 15:10:16;;;;;;;0.60;0.60;;;4.30;99.90;;;;;;6215793;23;20112;-74
2023/03/07 15:12:46;;;;;;;0.50;0.50;;;4.40;99.90;;;;;;6215936;23;20036;-73
2023/03/07 15:15:43;;;;;;;0.52;0.52;;;4.70;99.90;;;;;;6217644;23;20016;-74
2023/03/07 15:18:20;;;;;;;0.50;0.50;;;4.90;99.90;;;;;;6189418;23;20052;-74
2023/03/07 15:20:48;;;;;;;0.40;0.40;;;4.90;99.90;;;;;;6215646;23;20024;-74
2023/03/07 15:23:28;;;;;;;0.40;0.40;;;4.90;99.90;;;;;;6241271;23;20008;-74
2023/03/07 15:26:04;;;;;;;0.50;0.50;;;4.80;99.90;;;;;;6215642;23;20008;-74
2023/03/07 15:28:35;;;;;;;0.43;0.43;;;4.90;99.90;;;;;;6215537;23;20012;-73
2023/03/07 15:31:01;;;;;;;0.50;0.50;;;4.90;99.90;;;;;;6191508;23;20453;-73
2023/03/07 15:33:30;;;;;;;0.60;0.60;;;5.00;99.90;;;;;;6215490;23;20009;-73
2023/03/07 15:36:10;;;;;;;0.40;0.40;;;5.20;99.90;;;;;;6190383;23;20457;-73
2023/03/07 15:38:38;;;;;;;0.40;0.40;;;5.30;99.90;;;;;;6217145;23;20389;-74
2023/03/07 15:41:32;;;;;;;0.50;0.50;;;5.30;99.90;;;;;;6215884;23;20017;-74
2023/03/07 15:44:10;;;;;;;0.50;0.50;;;5.30;99.90;;;;;;6190406;23;20067;-74
2023/03/07 15:46:51;;;;;;;0.40;0.40;;;5.10;99.90;;;;;;6241133;23;20016;-75
2023/03/07 15:49:21;;;;;;;0.40;0.40;;;5.10;99.90;;;;;;6216118;23;20005;-75
2023/03/07 15:51:50;;;;;;;0.60;0.60;;;5.10;99.90;;;;;;6190381;23;20012;-74
2023/03/07 15:54:33;;;;;;;0.40;0.40;;;5.00;99.90;;;;;;6216835;23;20350;-74
2023/03/07 15:57:03;;;;;;;0.47;0.47;;;4.70;99.90;;;;;;6215502;23;20020;-75
2023/03/07 15:59:45;;;;;;;0.40;0.40;;;4.80;99.90;;;;;;6215273;23;20027;-75
2023/03/07 16:02:32;;;;;;;0.45;0.45;;;4.60;99.90;;;;;;6215388;23;20449;-74
2023/03/07 16:05:04;;;;;;;0.45;0.45;;;4.50;99.90;;;;;;6215328;23;20008;-74
2023/03/07 16:07:29;;;;;;;0.57;0.57;;;4.30;99.90;;;;;;6190259;23;20013;-74
2023/03/07 16:09:55;;;;;;;0.57;0.57;;;4.20;99.90;;;;;;6215177;23;20123;-70
2023/03/07 16:12:22;;;;;;;0.50;0.50;;;4.40;99.90;;;;;;6190489;23;20028;-71
2023/03/07 16:14:51;;;;;;;0.50;0.50;;;4.40;99.90;;;;;;6215517;23;20020;-71
2023/03/07 16:17:22;;;;;;;0.40;0.40;;;4.40;99.90;;;;;;6215144;23;20096;-71
2023/03/07 16:19:47;;;;;;;0.38;0.38;;;4.30;99.90;;;;;;6190178;23;20009;-75
2023/03/07 16:22:15;;;;;;;0.50;0.50;;;4.00;99.90;;;;;;6190052;23;20044;-74
2023/03/07 16:24:41;;;;;;;0.30;0.30;;;3.90;99.90;;;;;;6216370;23;20020;-70
2023/03/07 16:27:15;;;;;;;0.40;0.40;;;3.80;99.90;;;;;;6215100;23;20501;-70
2023/03/07 16:29:42;;;;;;;0.40;0.40;;;3.80;99.90;;;;;;6215163;23;20078;-70
2023/03/07 16:32:12;;;;;;;0.40;0.40;;;3.70;99.90;;;;;;6216961;23;20365;-70
2023/03/07 16:34:38;;;;;;;0.50;0.50;;;3.60;99.90;;;;;;6215395;23;20316;-74
2023/03/07 16:37:04;;;;;;;0.40;0.40;;;3.50;99.90;;;;;;6215138;23;20019;-74
2023/03/07 16:39:30;;;;;;;0.50;0.50;;;3.40;99.90;;;;;;6216829;23;20070;-70
2023/03/07 16:41:56;;;;;;;0.35;0.35;;;3.40;99.90;;;;;;6216928;23;20016;-73
2023/03/07 16:44:22;;;;;;;0.40;0.40;;;3.20;99.90;;;;;;6214899;23;20103;-73
2023/03/07 16:47:07;;;;;;;0.40;0.40;;;2.90;99.90;;;;;;6216602;23;20047;-73
2023/03/07 16:49:33;;;;;;;0.43;0.43;;;2.80;99.90;;;;;;6216712;23;20008;-73
2023/03/07 16:51:59;;;;;;;0.40;0.40;;;2.70;99.90;;;;;;6216366;23;20023;-73
2023/03/07 16:54:24;;;;;;;0.50;0.50;;;2.50;99.90;;;;;;6214661;23;20021;-72
2023/03/07 16:56:54;;;;;;;0.32;0.32;;;2.40;99.90;;;;;;6214902;23;20039;-73
2023/03/07 16:59:21;;;;;;;0.45;0.45;;;2.40;99.90;;;;;;6214883;23;20078;-73
2023/03/07 17:01:50;;;;;;;0.40;0.40;;;2.30;99.90;;;;;;6216766;23;20385;-74
2023/03/07 17:04:16;;;;;;;0.40;0.40;;;2.00;99.90;;;;;;6216713;23;20084;-73
2023/03/07 17:06:42;;;;;;;0.40;0.40;;;2.00;99.90;;;;;;6216703;23;20017;-74
2023/03/07 17:09:09;;;;;;;0.40;0.40;;;1.80;99.90;;;;;;6189844;23;20024;-74
2023/03/07 17:11:42;;;;;;;0.40;0.40;;;1.80;99.90;;;;;;6215018;23;20478;-74
2023/03/07 17:14:10;;;;;;;0.50;0.50;;;1.70;99.90;;;;;;6214881;23;20015;-72
2023/03/07 17:16:40;;;;;;;0.50;0.50;;;1.50;99.90;;;;;;6216598;23;20084;-73
2023/03/07 17:19:06;;;;;;;0.52;0.52;;;1.40;99.90;;;;;;6215016;23;20016;-74
2023/03/07 17:21:33;;;;;;;0.40;0.40;;;1.40;99.90;;;;;;6216441;23;20035;-74
2023/03/07 17:23:59;;;;;;;0.50;0.50;;;1.20;99.90;;;;;;6214427;23;20023;-75
2023/03/07 17:26:31;;;;;;;0.40;0.40;;;1.30;99.90;;;;;;6216368;23;20039;-74
2023/03/07 17:29:05;;;;;;;0.50;0.50;;;1.20;99.90;;;;;;6214882;23;20012;-76
2023/03/07 17:31:31;;;;;;;0.40;0.40;;;1.20;99.90;;;;;;6189327;23;20013;-77
2023/03/07 17:33:57;;;;;;;0.50;0.50;;;1.10;99.90;;;;;;6214394;23;20092;-70
2023/03/07 17:36:22;;;;;;;0.40;0.40;;;1.00;99.90;;;;;;6189408;23;20429;-80
2023/03/07 17:38:48;;;;;;;0.40;0.40;;;1.00;99.90;;;;;;6216165;23;20062;-73
2023/03/07 17:41:13;;;;;;;0.40;0.40;;;0.90;99.90;;;;;;6216317;23;20024;-73
2023/03/07 17:43:39;;;;;;;0.43;0.43;;;0.80;99.90;;;;;;6216211;23;20019;-74
2023/03/07 17:46:10;;;;;;;0.40;0.40;;;0.80;99.90;;;;;;6189114;23;20013;-72
2023/03/07 17:48:36;;;;;;;0.55;0.55;;;0.80;99.90;;;;;;6214357;23;20307;-72
2023/03/07 17:51:09;;;;;;;0.40;0.40;;;0.80;99.90;;;;;;6216333;23;20107;-72
2023/03/07 17:53:35;;;;;;;0.30;0.30;;;0.80;99.90;;;;;;6214063;23;20028;-72
2023/03/07 17:56:09;;;;;;;0.50;0.50;;;0.70;99.90;;;;;;6215846;23;20048;-72
2023/03/07 17:58:36;;;;;;;0.47;0.47;;;0.70;99.90;;;;;;6215666;23;20020;-73
2023/03/07 18:01:02;;;;;;;0.40;0.40;;;0.60;99.90;;;;;;6215839;23;20023;-72
2023/03/07 18:03:27;;;;;;;0.40;0.40;;;0.50;99.90;;;;;;6216163;23;20017;-73
2023/03/07 18:05:53;;;;;;;0.50;0.50;;;0.50;99.90;;;;;;6216353;23;20096;-74
2023/03/07 18:08:19;;;;;;;0.50;0.50;;;0.50;99.90;;;;;;6218409;23;20004;-80
2023/03/07 18:10:44;;;;;;;0.45;0.45;;;0.60;99.90;;;;;;6242125;23;20009;-80
2023/03/07 18:13:10;;;;;;;0.50;0.50;;;0.40;99.90;;;;;;6216373;23;20009;-76
2023/03/07 18:15:36;;;;;;;0.40;0.40;;;0.30;99.90;;;;;;6191210;23;20450;-68
2023/03/07 18:18:02;;;;;;;0.43;0.43;;;0.40;99.90;;;;;;6216631;23;20442;-81
2023/03/07 18:20:28;;;;;;;0.40;0.40;;;0.50;99.90;;;;;;6216267;23;20016;-73
2023/03/07 18:22:54;;;;;;;0.50;0.50;;;0.40;99.90;;;;;;6216158;23;20184;-73
2023/03/07 18:25:19;;;;;;;0.50;0.50;;;0.40;99.90;;;;;;6215971;23;20016;-73
2023/03/07 18:27:45;;;;;;;0.40;0.40;;;0.30;99.90;;;;;;6216298;23;20009;-72
2023/03/07 18:30:12;;;;;;;0.50;0.50;;;0.50;99.90;;;;;;6216084;23;20025;-72
2023/03/07 18:32:38;;;;;;;0.50;0.50;;;0.50;99.90;;;;;;6216087;23;20088;-72
2023/03/07 18:35:04;;;;;;;0.55;0.55;;;0.40;99.90;;;;;;6216040;23;20044;-72
2023/03/07 18:37:30;;;;;;;0.40;0.40;;;0.40;99.90;;;;;;6215953;23;20019;-73
2023/03/07 18:39:56;;;;;;;0.47;0.47;;;0.40;99.90;;;;;;6216168;23;20005;-72
2023/03/07 18:42:21;;;;;;;0.50;0.50;;;0.40;99.90;;;;;;6216086;23;20357;-73
2023/03/07 18:44:47;;;;;;;0.50;0.50;;;0.20;99.90;;;;;;6216944;23;20008;-73
2023/03/07 18:47:12;;;;;;;0.50;0.50;;;0.10;99.90;;;;;;6242222;23;20013;-72
2023/03/07 18:49:39;;;;;;;0.47;0.47;;;-0.10;99.90;;;;;;6216250;23;20074;-72
2023/03/07 18:52:04;;;;;;;0.50;0.50;;;-0.10;99.90;;;;;;6215935;23;20084;-72
2023/03/07 18:54:30;;;;;;;0.50;0.50;;;-0.20;99.90;;;;;;6217406;23;20048;-75
2023/03/07 18:56:55;;;;;;;0.57;0.57;;;-0.20;99.90;;;;;;6241338;23;20023;-75
2023/03/07 18:59:21;;;;;;;0.60;0.60;;;-0.10;99.90;;;;;;6217896;23;20017;-71
2023/03/07 19:01:50;;;;;;;0.50;0.50;;;0.00;99.90;;;;;;6215932;23;20017;-72
2023/03/07 19:04:16;;;;;;;0.50;0.50;;;-0.20;99.90;;;;;;6215840;23;20016;-72
2023/03/07 19:06:46;;;;;;;0.40;0.40;;;-0.20;99.90;;;;;;6215758;23;20042;-72
2023/03/07 19:09:17;;;;;;;0.50;0.50;;;-0.10;99.90;;;;;;6215953;23;20074;-72
2023/03/07 19:11:43;;;;;;;0.40;0.40;;;-0.10;99.90;;;;;;6216123;23;20008;-73
2023/03/07 19:14:09;;;;;;;0.40;0.40;;;-0.10;99.90;;;;;;6217398;23;20009;-71
2023/03/07 19:16:35;;;;;;;0.40;0.40;;;-0.10;99.90;;;;;;6217750;23;20346;-72
2023/03/07 19:19:01;;;;;;;0.50;0.50;;;0.00;99.90;;;;;;6215773;23;20104;-72
2023/03/07 19:21:28;;;;;;;0.50;0.50;;;-0.10;99.90;;;;;;6217521;23;20027;-72
2023/03/07 19:23:56;;;;;;;0.50;0.50;;;0.00;99.90;;;;;;6190488;23;20092;-72
2023/03/07 19:26:23;;;;;;;0.50;0.50;;;-0.10;99.90;;;;;;6190346;23;20013;-71
2023/03/07 19:28:51;;;;;;;0.40;0.40;;;-0.10;99.90;;;;;;6190624;23;20032;-71
2023/03/07 19:31:25;;;;;;;0.55;0.55;;;0.00;99.90;;;;;;6215576;23;20457;-72
2023/03/07 19:33:51;;;;;;;0.60;0.60;;;-0.10;99.90;;;;;;6216358;23;20485;-71
2023/03/07 19:36:20;;;;;;;0.50;0.50;;;-0.20;99.90;;;;;;6215554;23;20016;-72
2023/03/07 19:38:51;;;;;;;0.50;0.50;;;-0.20;99.90;;;;;;6217518;23;20016;-71
2023/03/07 19:41:22;;;;;;;0.60;0.60;;;-0.30;99.90;;;;;;6215392;23;20017;-71
2023/03/07 19:43:47;;;;;;;;;;;-0.30;99.90;;;;;;6217969;23;20013;-72
2023/03/07 19:46:14;;;;;;;0.50;0.50;;;-0.20;99.90;;;;;;6215330;23;19915;-72
2023/03/07 19:48:42;;;;;;;0.50;0.50;;;-0.30;99.90;;;;;;6215620;23;20039;-71
2023/03/07 19:51:22;;;;;;;0.40;0.40;;;-0.30;99.90;;;;;;6215450;23;20088;-71
2023/03/07 19:53:49;;;;;;;0.40;0.40;;;-0.30;99.90;;;;;;6216939;23;20017;-72
2023/03/07 19:56:18;;;;;;;0.60;0.60;;;-0.50;99.90;;;;;;6241090;23;20385;-72
2023/03/07 19:58:44;;;;;;;0.50;0.50;;;-0.50;99.90;;;;;;6241172;23;20044;-72
2023/03/07 20:01:12;;;;;;;0.50;0.50;;;-0.40;99.90;;;;;;6215268;23;20039;-72
2023/03/07 20:03:38;;;;;;;0.45;0.45;;;-0.30;99.90;;;;;;6217291;23;20009;-72
2023/03/07 20:06:05;;;;;;;0.60;0.60;;;-0.40;99.90;;;;;;6215085;23;20515;-72
2023/03/07 20:08:32;;;;;;;0.60;0.60;;;-0.40;99.90;;;;;;6215116;23;20012;-72
2023/03/07 20:11:18;;;;;;;0.60;0.60;;;-0.40;99.90;;;;;;6215050;23;20013;-72
2023/03/07 20:13:45;;;;;;;0.50;0.50;;;-0.30;99.90;;;;;;6215299;23;20015;-72
2023/03/07 20:16:13;;;;;;;0.47;0.47;;;-0.30;99.90;;;;;;6215080;23;20493;-72
2023/03/07 20:18:38;;;;;;;0.43;0.43;;;-0.20;99.90;;;;;;6216929;23;20039;-72
2023/03/07 20:21:10;;;;;;;0.50;0.50;;;0.10;99.90;;;;;;6217046;23;20009;-72
2023/03/07 20:23:36;;;;;;;0.50;0.50;;;-0.10;99.90;;;;;;6215127;23;20059;-72
2023/03/07 20:26:06;;;;;;;0.50;0.50;;;-0.10;99.90;;;;;;6214605;23;20060;-72
2023/03/07 20:28:31;;;;;;;0.50;0.50;;;-0.10;99.90;;;;;;6217176;23;20013;-72
2023/03/07 20:30:57;;;;;;;0.40;0.40;;;-0.10;99.90;;;;;;6217109;23;20011;-72
2023/03/07 20:33:23;;;;;;;0.60;0.60;;;-0.10;99.90;;;;;;6215076;23;20433;-73
2023/03/07 20:36:03;;;;;;;0.65;0.65;;;0.00;99.90;;;;;;6216981;23;20016;-73
2023/03/07 20:38:30;;;;;;;0.70;0.70;;;0.00;99.90;;;;;;6217121;23;20017;-73
2023/03/07 20:41:05;;;;;;;0.55;0.55;;;-0.10;99.90;;;;;;6189965;23;20016;-73
2023/03/07 20:43:33;;;;;;;0.60;0.60;;;0.00;99.90;;;;;;6215582;23;20086;-72
2023/03/07 20:46:08;;;;;;;0.50;0.50;;;-0.10;99.90;;;;;;6240704;23;20009;-72
2023/03/07 20:48:34;;;;;;;0.50;0.50;;;-0.10;99.90;;;;;;6215528;23;20020;-72
2023/03/07 20:51:17;;;;;;;0.47;0.47;;;-0.10;99.90;;;;;;6215296;23;20008;-77
2023/03/07 20:53:48;;;;;;;0.60;0.60;;;-0.10;99.90;;;;;;6215521;23;20096;-73
2023/03/07 20:56:14;;;;;;;0.57;0.57;;;-0.20;99.90;;;;;;6215028;23;20020;-72
2023/03/07 20:58:41;;;;;;;0.47;0.47;;;-0.10;99.90;;;;;;6240821;23;20141;-75
2023/03/07 21:01:07;;;;;;;0.50;0.50;;;-0.10;99.90;;;;;;6214956;23;20012;-75
2023/03/07 21:03:33;;;;;;;0.60;0.60;;;-0.10;99.90;;;;;;6214826;23;20017;-75
2023/03/07 21:06:00;;;;;;;0.50;0.50;;;-0.20;99.90;;;;;;6214582;23;20004;-74
2023/03/07 21:08:28;;;;;;;0.40;0.40;;;-0.20;99.90;;;;;;6214740;23;20012;-75
2023/03/07 21:11:01;;;;;;;0.50;0.50;;;-0.20;99.90;;;;;;6189658;23;20008;-74
2023/03/07 21:13:28;;;;;;;0.60;0.60;;;-0.10;99.90;;;;;;6215329;23;20005;-74
2023/03/07 21:16:03;;;;;;;0.50;0.50;;;-0.30;99.90;;;;;;6214629;23;20016;-74